sensor_id;sensor_type;location;lat;lon;timestamp;P1;durP1;ratioP1;P2;durP2;ratioP2
11191;SDS011;5652;48.406;10.820;2023-07-13T00:02:15;0.70;;;0.70;;
11191;SDS011;5652;48.406;10.820;2023-07-13T00:04:42;2.50;;;0.90;;
11191;SDS011;5652;48.406;10.820;2023-07-13T00:07:09;2.10;;;0.50;;
11191;SDS011;5652;48.406;10.820;2023-07-13T00:09:39;1.10;;;0.80;;
11191;SDS011;5652;48.406;10.820;2023-07-13T00:12:20;1.23;;;0.70;;
11191;SDS011;5652;48.406;10.820;2023-07-13T00:14:48;0.60;;;0.60;;
11191;SDS011;5652;48.406;10.820;2023-07-13T00:17:15;1.25;;;0.80;;
11191;SDS011;5652;48.406;10.820;2023-07-13T00:19:42;0.95;;;0.85;;
11191;SDS011;5652;48.406;10.820;2023-07-13T00:22:10;1.23;;;0.93;;
11191;SDS011;5652;48.406;10.820;2023-07-13T00:24:37;0.75;;;0.75;;
11191;SDS011;5652;48.406;10.820;2023-07-13T00:27:07;0.90;;;0.88;;
11191;SDS011;5652;48.406;10.820;2023-07-13T00:29:35;0.93;;;0.93;;
11191;SDS011;5652;48.406;10.820;2023-07-13T00:32:03;0.57;;;0.57;;
11191;SDS011;5652;48.406;10.820;2023-07-13T00:34:30;1.20;;;1.10;;
11191;SDS011;5652;48.406;10.820;2023-07-13T00:36:58;1.05;;;1.05;;
11191;SDS011;5652;48.406;10.820;2023-07-13T00:39:25;0.90;;;0.90;;
11191;SDS011;5652;48.406;10.820;2023-07-13T00:41:52;1.45;;;1.10;;
11191;SDS011;5652;48.406;10.820;2023-07-13T00:44:20;1.20;;;1.10;;
11191;SDS011;5652;48.406;10.820;2023-07-13T00:46:49;1.73;;;1.17;;
11191;SDS011;5652;48.406;10.820;2023-07-13T00:49:17;1.05;;;1.05;;
11191;SDS011;5652;48.406;10.820;2023-07-13T00:51:46;3.42;;;1.20;;
11191;SDS011;5652;48.406;10.820;2023-07-13T00:54:20;0.68;;;0.68;;
11191;SDS011;5652;48.406;10.820;2023-07-13T00:56:48;0.68;;;0.60;;
11191;SDS011;5652;48.406;10.820;2023-07-13T00:59:16;1.20;;;1.10;;
11191;SDS011;5652;48.406;10.820;2023-07-13T01:01:44;1.55;;;1.45;;
11191;SDS011;5652;48.406;10.820;2023-07-13T01:04:13;0.82;;;0.82;;
11191;SDS011;5652;48.406;10.820;2023-07-13T01:06:40;0.80;;;0.80;;
11191;SDS011;5652;48.406;10.820;2023-07-13T01:09:09;1.13;;;1.05;;
11191;SDS011;5652;48.406;10.820;2023-07-13T01:11:37;0.90;;;0.90;;
11191;SDS011;5652;48.406;10.820;2023-07-13T01:14:04;0.77;;;0.70;;
11191;SDS011;5652;48.406;10.820;2023-07-13T01:16:32;0.80;;;0.80;;
11191;SDS011;5652;48.406;10.820;2023-07-13T01:18:59;0.90;;;0.90;;
11191;SDS011;5652;48.406;10.820;2023-07-13T01:21:28;2.40;;;1.20;;
11191;SDS011;5652;48.406;10.820;2023-07-13T01:23:56;0.90;;;0.90;;
11191;SDS011;5652;48.406;10.820;2023-07-13T01:26:23;1.17;;;1.08;;
11191;SDS011;5652;48.406;10.820;2023-07-13T01:28:51;0.70;;;0.70;;
11191;SDS011;5652;48.406;10.820;2023-07-13T01:31:18;1.13;;;1.10;;
11191;SDS011;5652;48.406;10.820;2023-07-13T01:33:45;0.77;;;0.77;;
11191;SDS011;5652;48.406;10.820;2023-07-13T01:36:12;1.00;;;0.90;;
11191;SDS011;5652;48.406;10.820;2023-07-13T01:38:40;0.75;;;0.75;;
11191;SDS011;5652;48.406;10.820;2023-07-13T01:41:08;1.35;;;1.25;;
11191;SDS011;5652;48.406;10.820;2023-07-13T01:43:35;1.10;;;1.10;;
11191;SDS011;5652;48.406;10.820;2023-07-13T01:46:02;1.30;;;1.10;;
11191;SDS011;5652;48.406;10.820;2023-07-13T01:48:29;1.00;;;0.90;;
11191;SDS011;5652;48.406;10.820;2023-07-13T01:50:56;0.80;;;0.80;;
11191;SDS011;5652;48.406;10.820;2023-07-13T01:53:23;1.85;;;1.00;;
11191;SDS011;5652;48.406;10.820;2023-07-13T01:55:52;1.20;;;1.00;;
11191;SDS011;5652;48.406;10.820;2023-07-13T01:58:19;1.05;;;0.98;;
11191;SDS011;5652;48.406;10.820;2023-07-13T02:00:47;0.90;;;0.90;;
11191;SDS011;5652;48.406;10.820;2023-07-13T02:03:14;1.35;;;0.95;;
11191;SDS011;5652;48.406;10.820;2023-07-13T02:05:43;1.77;;;1.00;;
11191;SDS011;5652;48.406;10.820;2023-07-13T02:08:10;1.85;;;0.90;;
11191;SDS011;5652;48.406;10.820;2023-07-13T02:10:37;1.03;;;0.83;;
11191;SDS011;5652;48.406;10.820;2023-07-13T02:13:06;1.13;;;1.02;;
11191;SDS011;5652;48.406;10.820;2023-07-13T02:15:34;1.03;;;0.97;;
11191;SDS011;5652;48.406;10.820;2023-07-13T02:18:01;1.42;;;1.13;;
11191;SDS011;5652;48.406;10.820;2023-07-13T02:20:28;1.60;;;1.20;;
11191;SDS011;5652;48.406;10.820;2023-07-13T02:22:55;0.70;;;0.70;;
11191;SDS011;5652;48.406;10.820;2023-07-13T02:25:22;1.00;;;1.00;;
11191;SDS011;5652;48.406;10.820;2023-07-13T02:27:51;0.70;;;0.70;;
11191;SDS011;5652;48.406;10.820;2023-07-13T02:30:20;1.77;;;1.10;;
11191;SDS011;5652;48.406;10.820;2023-07-13T02:32:49;0.80;;;0.80;;
11191;SDS011;5652;48.406;10.820;2023-07-13T02:35:16;0.68;;;0.68;;
11191;SDS011;5652;48.406;10.820;2023-07-13T02:37:44;0.85;;;0.85;;
11191;SDS011;5652;48.406;10.820;2023-07-13T02:40:11;1.00;;;1.00;;
11191;SDS011;5652;48.406;10.820;2023-07-13T02:42:38;1.33;;;1.00;;
11191;SDS011;5652;48.406;10.820;2023-07-13T02:45:06;1.33;;;1.23;;
11191;SDS011;5652;48.406;10.820;2023-07-13T02:47:35;0.70;;;0.70;;
11191;SDS011;5652;48.406;10.820;2023-07-13T02:50:02;1.00;;;1.00;;
11191;SDS011;5652;48.406;10.820;2023-07-13T02:52:31;1.20;;;1.10;;
11191;SDS011;5652;48.406;10.820;2023-07-13T02:54:58;0.85;;;0.85;;
11191;SDS011;5652;48.406;10.820;2023-07-13T02:57:25;0.80;;;0.80;;
11191;SDS011;5652;48.406;10.820;2023-07-13T02:59:53;0.50;;;0.50;;
11191;SDS011;5652;48.406;10.820;2023-07-13T03:02:20;1.50;;;0.80;;
11191;SDS011;5652;48.406;10.820;2023-07-13T03:04:48;0.73;;;0.73;;
11191;SDS011;5652;48.406;10.820;2023-07-13T03:07:15;0.90;;;0.90;;
11191;SDS011;5652;48.406;10.820;2023-07-13T03:09:42;1.30;;;1.20;;
11191;SDS011;5652;48.406;10.820;2023-07-13T03:12:09;0.85;;;0.85;;
11191;SDS011;5652;48.406;10.820;2023-07-13T03:14:36;1.33;;;1.03;;
11191;SDS011;5652;48.406;10.820;2023-07-13T03:17:04;0.70;;;0.70;;
11191;SDS011;5652;48.406;10.820;2023-07-13T03:19:31;0.63;;;0.63;;
11191;SDS011;5652;48.406;10.820;2023-07-13T03:21:59;0.95;;;0.90;;
11191;SDS011;5652;48.406;10.820;2023-07-13T03:24:26;0.70;;;0.70;;
11191;SDS011;5652;48.406;10.820;2023-07-13T03:26:53;0.80;;;0.80;;
11191;SDS011;5652;48.406;10.820;2023-07-13T03:29:20;0.82;;;0.82;;
11191;SDS011;5652;48.406;10.820;2023-07-13T03:31:48;0.70;;;0.70;;
11191;SDS011;5652;48.406;10.820;2023-07-13T03:34:15;1.00;;;1.00;;
11191;SDS011;5652;48.406;10.820;2023-07-13T03:36:42;1.42;;;1.35;;
11191;SDS011;5652;48.406;10.820;2023-07-13T03:39:10;0.75;;;0.75;;
11191;SDS011;5652;48.406;10.820;2023-07-13T03:41:37;1.33;;;1.23;;
11191;SDS011;5652;48.406;10.820;2023-07-13T03:44:04;0.88;;;0.88;;
11191;SDS011;5652;48.406;10.820;2023-07-13T03:46:31;0.63;;;0.63;;
11191;SDS011;5652;48.406;10.820;2023-07-13T03:48:59;0.90;;;0.90;;
11191;SDS011;5652;48.406;10.820;2023-07-13T03:51:27;0.70;;;0.70;;
11191;SDS011;5652;48.406;10.820;2023-07-13T03:53:54;0.88;;;0.88;;
11191;SDS011;5652;48.406;10.820;2023-07-13T03:56:22;0.70;;;0.70;;
11191;SDS011;5652;48.406;10.820;2023-07-13T03:58:50;0.80;;;0.80;;
11191;SDS011;5652;48.406;10.820;2023-07-13T04:01:18;0.70;;;0.70;;
11191;SDS011;5652;48.406;10.820;2023-07-13T04:03:45;2.83;;;2.63;;
11191;SDS011;5652;48.406;10.820;2023-07-13T04:06:14;0.90;;;0.60;;
11191;SDS011;5652;48.406;10.820;2023-07-13T04:08:46;1.55;;;1.33;;
11191;SDS011;5652;48.406;10.820;2023-07-13T04:11:14;0.50;;;0.50;;
11191;SDS011;5652;48.406;10.820;2023-07-13T04:13:42;0.60;;;0.60;;
11191;SDS011;5652;48.406;10.820;2023-07-13T04:16:09;0.55;;;0.55;;
11191;SDS011;5652;48.406;10.820;2023-07-13T04:18:37;1.92;;;0.98;;
11191;SDS011;5652;48.406;10.820;2023-07-13T04:21:05;0.50;;;0.50;;
11191;SDS011;5652;48.406;10.820;2023-07-13T04:23:32;0.80;;;0.80;;
11191;SDS011;5652;48.406;10.820;2023-07-13T04:25:59;0.88;;;0.88;;
11191;SDS011;5652;48.406;10.820;2023-07-13T04:28:27;1.00;;;0.90;;
11191;SDS011;5652;48.406;10.820;2023-07-13T04:30:55;10.75;;;6.28;;
11191;SDS011;5652;48.406;10.820;2023-07-13T04:33:22;11.32;;;6.30;;
11191;SDS011;5652;48.406;10.820;2023-07-13T04:35:50;7.95;;;5.88;;
11191;SDS011;5652;48.406;10.820;2023-07-13T04:38:19;9.30;;;6.20;;
11191;SDS011;5652;48.406;10.820;2023-07-13T04:40:47;11.38;;;6.45;;
11191;SDS011;5652;48.406;10.820;2023-07-13T04:43:15;10.47;;;6.00;;
11191;SDS011;5652;48.406;10.820;2023-07-13T04:45:42;7.53;;;5.95;;
11191;SDS011;5652;48.406;10.820;2023-07-13T04:48:10;9.48;;;6.20;;
11191;SDS011;5652;48.406;10.820;2023-07-13T04:50:37;7.95;;;6.00;;
11191;SDS011;5652;48.406;10.820;2023-07-13T04:53:04;8.98;;;5.80;;
11191;SDS011;5652;48.406;10.820;2023-07-13T04:55:31;7.40;;;5.60;;
11191;SDS011;5652;48.406;10.820;2023-07-13T04:57:59;8.27;;;5.18;;
11191;SDS011;5652;48.406;10.820;2023-07-13T05:00:27;8.80;;;5.10;;
11191;SDS011;5652;48.406;10.820;2023-07-13T05:02:55;6.82;;;4.50;;
11191;SDS011;5652;48.406;10.820;2023-07-13T05:05:23;7.88;;;4.70;;
11191;SDS011;5652;48.406;10.820;2023-07-13T05:07:51;7.35;;;4.10;;
11191;SDS011;5652;48.406;10.820;2023-07-13T05:10:18;6.45;;;4.00;;
11191;SDS011;5652;48.406;10.820;2023-07-13T05:12:45;6.38;;;4.03;;
11191;SDS011;5652;48.406;10.820;2023-07-13T05:15:13;7.63;;;4.18;;
11191;SDS011;5652;48.406;10.820;2023-07-13T05:17:40;4.97;;;3.60;;
11191;SDS011;5652;48.406;10.820;2023-07-13T05:20:08;5.35;;;3.67;;
11191;SDS011;5652;48.406;10.820;2023-07-13T05:22:36;6.30;;;3.60;;
11191;SDS011;5652;48.406;10.820;2023-07-13T05:25:04;5.15;;;3.17;;
11191;SDS011;5652;48.406;10.820;2023-07-13T05:27:31;5.20;;;3.30;;
11191;SDS011;5652;48.406;10.820;2023-07-13T05:29:58;4.53;;;3.17;;
11191;SDS011;5652;48.406;10.820;2023-07-13T05:32:26;5.88;;;3.30;;
11191;SDS011;5652;48.406;10.820;2023-07-13T05:34:53;6.15;;;3.42;;
11191;SDS011;5652;48.406;10.820;2023-07-13T05:37:20;4.55;;;2.90;;
11191;SDS011;5652;48.406;10.820;2023-07-13T05:39:48;5.75;;;3.00;;
11191;SDS011;5652;48.406;10.820;2023-07-13T05:42:16;4.43;;;2.80;;
11191;SDS011;5652;48.406;10.820;2023-07-13T05:44:43;3.70;;;2.60;;
11191;SDS011;5652;48.406;10.820;2023-07-13T05:47:10;6.75;;;3.10;;
11191;SDS011;5652;48.406;10.820;2023-07-13T05:49:39;6.07;;;2.70;;
11191;SDS011;5652;48.406;10.820;2023-07-13T05:52:06;5.05;;;3.00;;
11191;SDS011;5652;48.406;10.820;2023-07-13T05:54:34;4.45;;;2.53;;
11191;SDS011;5652;48.406;10.820;2023-07-13T05:57:05;5.85;;;2.65;;
11191;SDS011;5652;48.406;10.820;2023-07-13T05:59:32;8.27;;;2.70;;
11191;SDS011;5652;48.406;10.820;2023-07-13T06:01:59;5.80;;;2.63;;
11191;SDS011;5652;48.406;10.820;2023-07-13T06:04:27;8.53;;;2.80;;
11191;SDS011;5652;48.406;10.820;2023-07-13T06:06:54;4.93;;;2.40;;
11191;SDS011;5652;48.406;10.820;2023-07-13T06:09:22;4.30;;;2.50;;
11191;SDS011;5652;48.406;10.820;2023-07-13T06:11:49;5.95;;;2.90;;
11191;SDS011;5652;48.406;10.820;2023-07-13T06:14:18;5.60;;;2.57;;
11191;SDS011;5652;48.406;10.820;2023-07-13T06:16:45;5.93;;;2.78;;
11191;SDS011;5652;48.406;10.820;2023-07-13T06:19:12;7.40;;;2.67;;
11191;SDS011;5652;48.406;10.820;2023-07-13T06:21:39;5.68;;;2.30;;
11191;SDS011;5652;48.406;10.820;2023-07-13T06:24:07;5.07;;;2.42;;
11191;SDS011;5652;48.406;10.820;2023-07-13T06:26:34;4.05;;;2.40;;
11191;SDS011;5652;48.406;10.820;2023-07-13T06:29:01;4.22;;;2.50;;
11191;SDS011;5652;48.406;10.820;2023-07-13T06:31:31;6.80;;;2.78;;
11191;SDS011;5652;48.406;10.820;2023-07-13T06:33:58;8.43;;;2.90;;
11191;SDS011;5652;48.406;10.820;2023-07-13T06:36:25;6.57;;;2.70;;
11191;SDS011;5652;48.406;10.820;2023-07-13T06:38:53;4.30;;;2.53;;
11191;SDS011;5652;48.406;10.820;2023-07-13T06:41:20;4.60;;;2.87;;
11191;SDS011;5652;48.406;10.820;2023-07-13T06:43:51;9.00;;;3.10;;
11191;SDS011;5652;48.406;10.820;2023-07-13T06:46:20;6.82;;;3.20;;
11191;SDS011;5652;48.406;10.820;2023-07-13T06:48:50;5.80;;;3.15;;
11191;SDS011;5652;48.406;10.820;2023-07-13T06:51:17;8.20;;;3.10;;
11191;SDS011;5652;48.406;10.820;2023-07-13T06:53:44;6.47;;;3.65;;
11191;SDS011;5652;48.406;10.820;2023-07-13T06:56:11;5.28;;;3.00;;
11191;SDS011;5652;48.406;10.820;2023-07-13T06:58:39;5.20;;;2.70;;
11191;SDS011;5652;48.406;10.820;2023-07-13T07:01:06;5.72;;;2.75;;
11191;SDS011;5652;48.406;10.820;2023-07-13T07:03:33;5.97;;;2.80;;
11191;SDS011;5652;48.406;10.820;2023-07-13T07:06:03;5.15;;;2.97;;
11191;SDS011;5652;48.406;10.820;2023-07-13T07:08:33;3.22;;;2.40;;
11191;SDS011;5652;48.406;10.820;2023-07-13T07:11:00;3.90;;;2.30;;
11191;SDS011;5652;48.406;10.820;2023-07-13T07:13:27;6.65;;;2.60;;
11191;SDS011;5652;48.406;10.820;2023-07-13T07:15:55;4.70;;;2.60;;
11191;SDS011;5652;48.406;10.820;2023-07-13T07:18:22;5.53;;;2.35;;
11191;SDS011;5652;48.406;10.820;2023-07-13T07:20:49;4.30;;;2.15;;
11191;SDS011;5652;48.406;10.820;2023-07-13T07:23:18;4.45;;;2.30;;
11191;SDS011;5652;48.406;10.820;2023-07-13T07:25:46;6.75;;;2.10;;
11191;SDS011;5652;48.406;10.820;2023-07-13T07:28:14;5.88;;;2.05;;
11191;SDS011;5652;48.406;10.820;2023-07-13T07:30:43;5.60;;;2.05;;
11191;SDS011;5652;48.406;10.820;2023-07-13T07:33:10;2.85;;;1.70;;
11191;SDS011;5652;48.406;10.820;2023-07-13T07:35:37;4.35;;;2.17;;
11191;SDS011;5652;48.406;10.820;2023-07-13T07:38:05;4.72;;;2.03;;
11191;SDS011;5652;48.406;10.820;2023-07-13T07:40:37;3.00;;;2.00;;
11191;SDS011;5652;48.406;10.820;2023-07-13T07:43:04;5.18;;;1.90;;
11191;SDS011;5652;48.406;10.820;2023-07-13T07:45:32;4.50;;;2.03;;
11191;SDS011;5652;48.406;10.820;2023-07-13T07:47:59;4.57;;;1.90;;
11191;SDS011;5652;48.406;10.820;2023-07-13T07:50:26;3.88;;;2.28;;
11191;SDS011;5652;48.406;10.820;2023-07-13T07:52:53;3.83;;;2.10;;
11191;SDS011;5652;48.406;10.820;2023-07-13T07:55:21;5.10;;;2.17;;
11191;SDS011;5652;48.406;10.820;2023-07-13T07:57:50;4.35;;;2.30;;
11191;SDS011;5652;48.406;10.820;2023-07-13T08:00:18;6.45;;;2.10;;
11191;SDS011;5652;48.406;10.820;2023-07-13T08:02:45;5.37;;;2.03;;
11191;SDS011;5652;48.406;10.820;2023-07-13T08:05:22;3.97;;;2.00;;
11191;SDS011;5652;48.406;10.820;2023-07-13T08:07:50;3.58;;;2.35;;
11191;SDS011;5652;48.406;10.820;2023-07-13T08:10:20;4.55;;;1.90;;
11191;SDS011;5652;48.406;10.820;2023-07-13T08:12:49;4.97;;;2.07;;
11191;SDS011;5652;48.406;10.820;2023-07-13T08:15:17;2.90;;;2.00;;
11191;SDS011;5652;48.406;10.820;2023-07-13T08:17:45;4.95;;;2.13;;
11191;SDS011;5652;48.406;10.820;2023-07-13T08:20:12;6.68;;;2.25;;
11191;SDS011;5652;48.406;10.820;2023-07-13T08:22:40;5.93;;;2.10;;
11191;SDS011;5652;48.406;10.820;2023-07-13T08:25:07;4.27;;;2.10;;
11191;SDS011;5652;48.406;10.820;2023-07-13T08:27:34;3.70;;;1.95;;
11191;SDS011;5652;48.406;10.820;2023-07-13T08:30:03;4.68;;;2.17;;
11191;SDS011;5652;48.406;10.820;2023-07-13T08:32:30;5.00;;;1.80;;
11191;SDS011;5652;48.406;10.820;2023-07-13T08:34:58;3.95;;;1.90;;
11191;SDS011;5652;48.406;10.820;2023-07-13T08:37:25;4.10;;;1.60;;
11191;SDS011;5652;48.406;10.820;2023-07-13T08:39:52;4.38;;;1.70;;
11191;SDS011;5652;48.406;10.820;2023-07-13T08:42:27;4.53;;;2.00;;
11191;SDS011;5652;48.406;10.820;2023-07-13T08:45:01;5.30;;;1.63;;
11191;SDS011;5652;48.406;10.820;2023-07-13T08:47:35;3.40;;;1.70;;
11191;SDS011;5652;48.406;10.820;2023-07-13T08:50:04;4.40;;;1.87;;
11191;SDS011;5652;48.406;10.820;2023-07-13T08:52:32;5.27;;;2.00;;
11191;SDS011;5652;48.406;10.820;2023-07-13T08:55:02;2.90;;;1.90;;
11191;SDS011;5652;48.406;10.820;2023-07-13T08:57:34;3.40;;;1.95;;
11191;SDS011;5652;48.406;10.820;2023-07-13T09:00:01;3.38;;;1.98;;
11191;SDS011;5652;48.406;10.820;2023-07-13T09:02:38;1.98;;;1.70;;
11191;SDS011;5652;48.406;10.820;2023-07-13T09:05:09;2.80;;;1.60;;
11191;SDS011;5652;48.406;10.820;2023-07-13T09:07:40;3.70;;;2.10;;
11191;SDS011;5652;48.406;10.820;2023-07-13T09:10:15;3.05;;;1.75;;
11191;SDS011;5652;48.406;10.820;2023-07-13T09:12:50;2.38;;;1.50;;
11191;SDS011;5652;48.406;10.820;2023-07-13T09:15:24;5.50;;;1.83;;
11191;SDS011;5652;48.406;10.820;2023-07-13T09:17:53;2.80;;;1.60;;
11191;SDS011;5652;48.406;10.820;2023-07-13T09:20:22;6.47;;;1.50;;
11191;SDS011;5652;48.406;10.820;2023-07-13T09:22:51;3.95;;;1.77;;
11191;SDS011;5652;48.406;10.820;2023-07-13T09:25:22;4.85;;;1.98;;
11191;SDS011;5652;48.406;10.820;2023-07-13T09:27:50;5.50;;;2.40;;
11191;SDS011;5652;48.406;10.820;2023-07-13T09:30:24;4.13;;;1.92;;
11191;SDS011;5652;48.406;10.820;2023-07-13T09:32:55;2.05;;;1.70;;
11191;SDS011;5652;48.406;10.820;2023-07-13T09:35:25;3.33;;;1.83;;
11191;SDS011;5652;48.406;10.820;2023-07-13T09:37:56;2.50;;;1.63;;
11191;SDS011;5652;48.406;10.820;2023-07-13T09:40:24;2.53;;;1.60;;
11191;SDS011;5652;48.406;10.820;2023-07-13T09:43:05;3.60;;;1.83;;
11191;SDS011;5652;48.406;10.820;2023-07-13T09:45:36;3.38;;;1.60;;
11191;SDS011;5652;48.406;10.820;2023-07-13T09:48:07;3.30;;;1.65;;
11191;SDS011;5652;48.406;10.820;2023-07-13T09:50:38;3.45;;;1.60;;
11191;SDS011;5652;48.406;10.820;2023-07-13T09:53:11;3.40;;;1.73;;
11191;SDS011;5652;48.406;10.820;2023-07-13T09:55:39;2.15;;;1.50;;
11191;SDS011;5652;48.406;10.820;2023-07-13T09:58:09;4.70;;;1.77;;
11191;SDS011;5652;48.406;10.820;2023-07-13T10:00:37;3.17;;;1.63;;
11191;SDS011;5652;48.406;10.820;2023-07-13T10:03:18;3.58;;;1.90;;
11191;SDS011;5652;48.406;10.820;2023-07-13T10:05:47;2.53;;;1.60;;
11191;SDS011;5652;48.406;10.820;2023-07-13T10:08:21;3.10;;;1.55;;
11191;SDS011;5652;48.406;10.820;2023-07-13T10:10:52;3.00;;;1.40;;
11191;SDS011;5652;48.406;10.820;2023-07-13T10:13:27;2.90;;;1.55;;
11191;SDS011;5652;48.406;10.820;2023-07-13T10:15:56;4.18;;;1.67;;
11191;SDS011;5652;48.406;10.820;2023-07-13T10:18:26;3.88;;;1.80;;
11191;SDS011;5652;48.406;10.820;2023-07-13T10:20:54;3.40;;;1.65;;
11191;SDS011;5652;48.406;10.820;2023-07-13T10:23:31;3.08;;;1.60;;
11191;SDS011;5652;48.406;10.820;2023-07-13T10:26:00;3.97;;;1.70;;
11191;SDS011;5652;48.406;10.820;2023-07-13T10:28:29;3.28;;;1.92;;
11191;SDS011;5652;48.406;10.820;2023-07-13T10:30:58;5.33;;;1.80;;
11191;SDS011;5652;48.406;10.820;2023-07-13T10:33:27;2.92;;;1.60;;
11191;SDS011;5652;48.406;10.820;2023-07-13T10:35:59;4.60;;;1.60;;
11191;SDS011;5652;48.406;10.820;2023-07-13T10:38:28;2.45;;;1.58;;
11191;SDS011;5652;48.406;10.820;2023-07-13T10:40:56;4.30;;;1.83;;
11191;SDS011;5652;48.406;10.820;2023-07-13T10:43:25;2.30;;;1.60;;
11191;SDS011;5652;48.406;10.820;2023-07-13T10:45:53;3.30;;;1.70;;
11191;SDS011;5652;48.406;10.820;2023-07-13T10:48:20;4.50;;;1.50;;
11191;SDS011;5652;48.406;10.820;2023-07-13T10:50:51;2.72;;;1.40;;
11191;SDS011;5652;48.406;10.820;2023-07-13T10:53:19;3.45;;;1.77;;
11191;SDS011;5652;48.406;10.820;2023-07-13T10:55:58;4.00;;;1.60;;
11191;SDS011;5652;48.406;10.820;2023-07-13T10:58:28;4.80;;;1.80;;
11191;SDS011;5652;48.406;10.820;2023-07-13T11:00:57;3.00;;;1.80;;
11191;SDS011;5652;48.406;10.820;2023-07-13T11:03:25;2.90;;;1.73;;
11191;SDS011;5652;48.406;10.820;2023-07-13T11:06:05;3.47;;;1.63;;
11191;SDS011;5652;48.406;10.820;2023-07-13T11:08:35;3.70;;;1.63;;
11191;SDS011;5652;48.406;10.820;2023-07-13T11:11:05;2.80;;;1.60;;
11191;SDS011;5652;48.406;10.820;2023-07-13T11:13:57;2.35;;;1.65;;
11191;SDS011;5652;48.406;10.820;2023-07-13T11:16:34;3.90;;;1.70;;
11191;SDS011;5652;48.406;10.820;2023-07-13T11:19:25;2.90;;;1.67;;
11191;SDS011;5652;48.406;10.820;2023-07-13T11:22:10;3.05;;;2.03;;
11191;SDS011;5652;48.406;10.820;2023-07-13T11:27:22;3.13;;;1.63;;
11191;SDS011;5652;48.406;10.820;2023-07-13T11:29:49;4.93;;;2.00;;
11191;SDS011;5652;48.406;10.820;2023-07-13T11:32:24;5.10;;;1.80;;
11191;SDS011;5652;48.406;10.820;2023-07-13T11:34:53;3.55;;;1.67;;
11191;SDS011;5652;48.406;10.820;2023-07-13T11:37:22;8.88;;;2.10;;
11191;SDS011;5652;48.406;10.820;2023-07-13T11:39:50;4.15;;;1.83;;
11191;SDS011;5652;48.406;10.820;2023-07-13T11:42:18;2.30;;;1.65;;
11191;SDS011;5652;48.406;10.820;2023-07-13T11:44:47;5.25;;;2.05;;
11191;SDS011;5652;48.406;10.820;2023-07-13T11:47:16;5.07;;;1.98;;
11191;SDS011;5652;48.406;10.820;2023-07-13T11:49:47;3.60;;;1.67;;
11191;SDS011;5652;48.406;10.820;2023-07-13T11:52:17;5.18;;;1.90;;
11191;SDS011;5652;48.406;10.820;2023-07-13T11:54:48;2.88;;;1.85;;
11191;SDS011;5652;48.406;10.820;2023-07-13T11:57:23;3.60;;;1.80;;
11191;SDS011;5652;48.406;10.820;2023-07-13T11:59:52;4.13;;;1.70;;
11191;SDS011;5652;48.406;10.820;2023-07-13T12:02:23;6.55;;;1.92;;
11191;SDS011;5652;48.406;10.820;2023-07-13T12:04:53;3.22;;;1.88;;
11191;SDS011;5652;48.406;10.820;2023-07-13T12:07:22;4.70;;;1.90;;
11191;SDS011;5652;48.406;10.820;2023-07-13T12:09:50;4.28;;;1.80;;
11191;SDS011;5652;48.406;10.820;2023-07-13T12:12:18;4.10;;;1.80;;
11191;SDS011;5652;48.406;10.820;2023-07-13T12:14:45;5.95;;;1.80;;
11191;SDS011;5652;48.406;10.820;2023-07-13T12:17:20;6.63;;;1.70;;
11191;SDS011;5652;48.406;10.820;2023-07-13T12:19:48;4.10;;;1.80;;
11191;SDS011;5652;48.406;10.820;2023-07-13T12:22:16;2.55;;;1.75;;
11191;SDS011;5652;48.406;10.820;2023-07-13T12:24:44;2.57;;;1.70;;
11191;SDS011;5652;48.406;10.820;2023-07-13T12:27:19;4.88;;;1.50;;
11191;SDS011;5652;48.406;10.820;2023-07-13T12:29:51;5.20;;;1.60;;
11191;SDS011;5652;48.406;10.820;2023-07-13T12:32:20;4.63;;;1.90;;
11191;SDS011;5652;48.406;10.820;2023-07-13T12:34:51;3.27;;;1.77;;
11191;SDS011;5652;48.406;10.820;2023-07-13T12:37:19;4.50;;;1.50;;
11191;SDS011;5652;48.406;10.820;2023-07-13T12:39:53;4.60;;;1.80;;
11191;SDS011;5652;48.406;10.820;2023-07-13T12:42:23;3.60;;;1.73;;
11191;SDS011;5652;48.406;10.820;2023-07-13T12:44:53;3.00;;;1.70;;
11191;SDS011;5652;48.406;10.820;2023-07-13T12:47:22;3.47;;;1.63;;
11191;SDS011;5652;48.406;10.820;2023-07-13T12:49:50;3.28;;;1.90;;
11191;SDS011;5652;48.406;10.820;2023-07-13T12:52:20;5.15;;;1.85;;
11191;SDS011;5652;48.406;10.820;2023-07-13T12:54:54;3.92;;;1.70;;
11191;SDS011;5652;48.406;10.820;2023-07-13T12:57:26;2.78;;;2.00;;
11191;SDS011;5652;48.406;10.820;2023-07-13T12:59:55;6.50;;;1.80;;
11191;SDS011;5652;48.406;10.820;2023-07-13T13:02:26;4.00;;;1.90;;
11191;SDS011;5652;48.406;10.820;2023-07-13T13:04:55;3.20;;;1.60;;
11191;SDS011;5652;48.406;10.820;2023-07-13T13:07:23;3.50;;;1.50;;
11191;SDS011;5652;48.406;10.820;2023-07-13T13:09:51;3.97;;;1.48;;
11191;SDS011;5652;48.406;10.820;2023-07-13T13:12:19;2.75;;;1.65;;
11191;SDS011;5652;48.406;10.820;2023-07-13T13:14:48;5.15;;;1.70;;
11191;SDS011;5652;48.406;10.820;2023-07-13T13:17:18;4.00;;;1.70;;
11191;SDS011;5652;48.406;10.820;2023-07-13T13:19:46;5.47;;;1.65;;
11191;SDS011;5652;48.406;10.820;2023-07-13T13:22:13;2.72;;;1.90;;
11191;SDS011;5652;48.406;10.820;2023-07-13T13:24:41;2.65;;;1.60;;
11191;SDS011;5652;48.406;10.820;2023-07-13T13:27:12;2.75;;;1.50;;
11191;SDS011;5652;48.406;10.820;2023-07-13T13:29:43;4.70;;;1.70;;
11191;SDS011;5652;48.406;10.820;2023-07-13T13:32:13;4.32;;;1.75;;
11191;SDS011;5652;48.406;10.820;2023-07-13T13:34:43;5.37;;;1.80;;
11191;SDS011;5652;48.406;10.820;2023-07-13T13:37:17;4.27;;;1.60;;
11191;SDS011;5652;48.406;10.820;2023-07-13T13:39:45;4.03;;;1.80;;
11191;SDS011;5652;48.406;10.820;2023-07-13T13:42:13;2.92;;;1.52;;
11191;SDS011;5652;48.406;10.820;2023-07-13T13:44:41;3.92;;;1.80;;
11191;SDS011;5652;48.406;10.820;2023-07-13T13:47:19;3.28;;;1.58;;
11191;SDS011;5652;48.406;10.820;2023-07-13T13:49:47;2.85;;;1.85;;
11191;SDS011;5652;48.406;10.820;2023-07-13T13:52:14;3.00;;;1.73;;
11191;SDS011;5652;48.406;10.820;2023-07-13T13:54:41;2.42;;;1.60;;
11191;SDS011;5652;48.406;10.820;2023-07-13T13:57:09;3.38;;;1.83;;
11191;SDS011;5652;48.406;10.820;2023-07-13T13:59:40;1.77;;;1.30;;
11191;SDS011;5652;48.406;10.820;2023-07-13T14:02:11;4.32;;;1.77;;
11191;SDS011;5652;48.406;10.820;2023-07-13T14:04:49;2.53;;;1.58;;
11191;SDS011;5652;48.406;10.820;2023-07-13T14:07:17;2.17;;;1.35;;
11191;SDS011;5652;48.406;10.820;2023-07-13T14:09:44;2.70;;;1.63;;
11191;SDS011;5652;48.406;10.820;2023-07-13T14:12:11;3.47;;;1.58;;
11191;SDS011;5652;48.406;10.820;2023-07-13T14:14:42;3.90;;;1.65;;
11191;SDS011;5652;48.406;10.820;2023-07-13T14:17:13;3.63;;;1.50;;
11191;SDS011;5652;48.406;10.820;2023-07-13T14:19:50;2.43;;;1.70;;
11191;SDS011;5652;48.406;10.820;2023-07-13T14:22:22;3.63;;;1.70;;
11191;SDS011;5652;48.406;10.820;2023-07-13T14:24:49;2.40;;;1.60;;
11191;SDS011;5652;48.406;10.820;2023-07-13T14:27:16;2.97;;;1.67;;
11191;SDS011;5652;48.406;10.820;2023-07-13T14:29:43;3.15;;;1.70;;
11191;SDS011;5652;48.406;10.820;2023-07-13T14:32:11;3.65;;;1.73;;
11191;SDS011;5652;48.406;10.820;2023-07-13T14:34:39;3.50;;;1.60;;
11191;SDS011;5652;48.406;10.820;2023-07-13T14:37:09;3.95;;;1.50;;
11191;SDS011;5652;48.406;10.820;2023-07-13T14:39:43;2.92;;;1.63;;
11191;SDS011;5652;48.406;10.820;2023-07-13T14:42:11;2.65;;;1.60;;
11191;SDS011;5652;48.406;10.820;2023-07-13T14:44:38;3.80;;;1.60;;
11191;SDS011;5652;48.406;10.820;2023-07-13T14:47:05;2.60;;;1.60;;
11191;SDS011;5652;48.406;10.820;2023-07-13T14:49:33;5.60;;;2.35;;
11191;SDS011;5652;48.406;10.820;2023-07-13T14:52:02;4.88;;;1.70;;
11191;SDS011;5652;48.406;10.820;2023-07-13T14:54:32;2.90;;;1.60;;
11191;SDS011;5652;48.406;10.820;2023-07-13T14:56:59;2.73;;;1.60;;
11191;SDS011;5652;48.406;10.820;2023-07-13T14:59:26;3.23;;;1.50;;
11191;SDS011;5652;48.406;10.820;2023-07-13T15:01:53;4.70;;;1.60;;